Oakville, TX

7:13 AM CDT on August 29, 2014 (GMT -0500)
Robstown | Change Station
CLOSE
Current Station
Airport
Location: Robstown,
Elevation: 79 ft
Nearby Weather Stations

Elev 79 ft 27.78 °N, 97.69 °W | Updated 18 minutes ago

Overcast
Overcast
78 °F
Feels Like 78 °F
N
5
Wind Variable Wind from East

Today
High -- | Low -- °F
--% Chance of Precip.
Yesterday
High -- | Low -- °F
Precip. -- in
7:09 AM 7:56 PM
Waxing Crescent, 14% visible
Pressure 29.82 in
Visibility 10.0 miles
Clouds Scattered Clouds 3000 ft
Scattered Clouds 4700 ft
Overcast 7500 ft
Dew Point 76 °F
Humidity 93%
Rainfall 0.00 in
Snow Depth Not available.
UV 0 out of 12
Pollen 7.00 out of 12
Air Quality Not available.
Flu Activity Not available.
METAR KRBO 291155Z AUTO 09004KT 10SM SCT030 SCT047 OVC075 26/25 A2982 RMK AO2 LTG DSNT SE AND S 70002 T02570245 10290 20255

More Conditions Fewer Conditions

Pressure 29.82 in
Visibility 10.0 miles
Clouds Scattered Clouds 3000 ft
Scattered Clouds 4700 ft
Overcast 7500 ft
Dew Point 76 °F
Humidity 93%
Rainfall 0.00 in
Snow Depth Not available.
UV 0 out of 12
Pollen 7.00 out of 12
Air Quality Not available.
Flu Activity Not available.
METAR KRBO 291155Z AUTO 09004KT 10SM SCT030 SCT047 OVC075 26/25 A2982 RMK AO2 LTG DSNT SE AND S 70002 T02570245 10290 20255

More Conditions Fewer Conditions

Nowcast | as of 6:35 am CDT on August 29, 2014

Rain...showers and thunderstorms will affect south Texas and the coastal waters this morning. Through 9 am CDT...a sufficient amount of Gulf moisture will move inland...producing scattered showers and isolated thunderstorms over the coastal Bend...the Victoria Crossroads...and the coastal plains. The heaviest precipitation will be along or near the coast...where rainfall amounts through the middle of the morning could locally be over an inch...particularly with thunderstorms. Further inland...rainfall amounts will generally range from a trace to a quarter of an inch. Mariners should be prepared for squally conditions with gusts to 30 knots...especially to 60 nautical miles out from Port Aransas to Baffin Bay.

×

10-Day Weather Forecast

Almanac

Astronomy

Aug. 29, 2014 Rise Set
Actual Time 7:09 AM CDT 7:56 PM CDT
Civil Twilight 6:45 AM CDT 8:20 PM CDT
Nautical Twilight 6:16 AM CDT 8:49 PM CDT
Astronomical Twilight 5:47 AM CDT 9:18 PM CDT
Moon 10:37 AM CDT 10:19 PM CDT
Length of Visible Light 13h 35m
Length of Day
12h 47m
Tomorrow will be 1m 36s shorter.
Waxing Crescent, 14% of the Moon is Illuminated
Today
Waxing Crescent
Sep 2
First Quarter
Sep 8
Full
Sep 15
Last Quarter
Sep 24
New

Today's Extremes

State Highs State Lows

Community

WunderPhotos

Upload Photos

1,748,217 photos uploaded!

Nearby

Snow Depth

Station Depth Elevation
No new snow has been reported.

Earthquake Activity

City Distance Mag. Time & Date
No recent earthquake activity has been reported nearby.
Minimum magnitude displayed is 2.5.

Coastal Water Temperatures

Place Temperature
No Stations Reporting

Nearby Weather Stations